Time;durP1;ratioP1;P1;durP2;ratioP2;P2;SDS_P1;SDS_P2;PMS_P1;PMS_P2;Temp;Humidity;BMP_temperature;BMP_pressure;BME280_temperature;BME280_humidity;BME280_pressure;Samples;Min_cycle;Max_cycle;Signal;HPM_P1;HPM_P2
2023/10/11 00:00:40;;;;;;;10.93;4.65;;;;;;;21.78;55.94;101480.00;4999913;28;20061;-37
2023/10/11 00:03:17;;;;;;;7.32;4.22;;;;;;;21.79;55.75;101481.72;5001742;28;20047;-37
2023/10/11 00:05:46;;;;;;;8.13;4.75;;;;;;;21.77;56.10;101483.72;5003404;28;20050;-37
2023/10/11 00:08:18;;;;;;;8.82;4.47;;;;;;;21.78;56.12;101487.25;4999713;28;20540;-37
2023/10/11 00:10:53;;;;;;;7.88;4.00;;;;;;;21.77;56.03;101483.72;5005249;28;20054;-37
2023/10/11 00:13:22;;;;;;;9.65;4.70;;;;;;;21.76;55.99;101483.91;5002856;28;20809;-37
2023/10/11 00:15:51;;;;;;;12.10;5.82;;;;;;;21.76;56.30;101486.59;5002405;28;20054;-37
2023/10/11 00:18:19;;;;;;;9.90;4.88;;;;;;;21.76;56.13;101478.50;5005286;28;20529;-37
2023/10/11 00:20:51;;;;;;;10.85;4.85;;;;;;;21.75;56.33;101484.88;5005777;28;20054;-37
2023/10/11 00:23:22;;;;;;;9.30;5.07;;;;;;;21.74;55.90;101480.50;5004252;28;20450;-37
2023/10/11 00:25:50;;;;;;;8.75;4.43;;;;;;;21.74;56.05;101484.03;5000299;28;20367;-36
2023/10/11 00:28:23;;;;;;;13.02;5.45;;;;;;;21.74;55.93;101477.81;5002817;28;20073;-37
2023/10/11 00:30:55;;;;;;;9.80;4.60;;;;;;;21.73;55.90;101481.53;5006803;28;20053;-37
2023/10/11 00:33:22;;;;;;;10.20;4.35;;;;;;;21.73;56.23;101484.22;5004824;28;20137;-37
2023/10/11 00:36:05;;;;;;;9.82;4.82;;;;;;;21.72;56.26;101469.03;5002026;28;20046;-37
2023/10/11 00:38:42;;;;;;;13.57;6.18;;;;;;;21.72;56.18;101475.28;5003346;28;20035;-37
2023/10/11 00:41:12;;;;;;;9.48;4.90;;;;;;;21.69;56.42;101465.66;5003388;28;20054;-37
2023/10/11 00:43:41;;;;;;;6.07;4.00;;;;;;;21.71;56.37;101464.63;4999217;28;20054;-37
2023/10/11 00:46:09;;;;;;;13.50;4.82;;;;;;;21.69;56.08;101468.34;5008004;28;20053;-36
2023/10/11 00:49:05;;;;;;;10.68;4.68;;;;;;;21.69;56.50;101468.34;5007093;28;20046;-36
2023/10/11 00:51:32;;;;;;;12.63;4.88;;;;;;;21.68;56.36;101472.06;5009202;28;20086;-37
2023/10/11 00:54:01;;;;;;;7.95;5.25;;;;;;;21.68;56.33;101469.34;5007952;28;20065;-37
2023/10/11 00:56:33;;;;;;;11.25;5.80;;;;;;;21.69;56.18;101464.81;5006789;28;20119;-37
2023/10/11 00:59:08;;;;;;;8.02;5.07;;;;;;;21.68;56.29;101468.53;5003169;28;20435;-37
2023/10/11 01:01:44;;;;;;;11.05;5.18;;;;;;;21.67;56.71;101467.69;5003287;28;20144;-37
2023/10/11 01:04:12;;;;;;;11.63;5.65;;;;;;;21.66;56.36;101455.16;5006274;28;20129;-37
2023/10/11 01:06:39;;;;;;;10.80;5.60;;;;;;;21.66;56.33;101449.78;5006113;28;20077;-37
2023/10/11 01:09:15;;;;;;;12.52;5.78;;;;;;;21.66;56.04;101449.78;5003159;28;20048;-37
2023/10/11 01:11:45;;;;;;;9.43;5.65;;;;;;;21.66;56.37;101452.47;5003952;28;20119;-37
2023/10/11 01:14:12;;;;;;;11.88;5.40;;;;;;;21.65;56.71;101448.09;5000380;28;20054;-37
2023/10/11 01:16:39;;;;;;;9.77;5.38;;;;;;;21.64;56.43;101441.00;4998337;28;20108;-37
2023/10/11 01:19:10;;;;;;;13.30;6.07;;;;;;;21.64;56.56;101450.97;5006476;28;20073;-36
2023/10/11 01:21:44;;;;;;;12.32;5.18;;;;;;;21.63;56.38;101450.13;5003815;28;20054;-37
2023/10/11 01:24:11;;;;;;;9.70;5.25;;;;;;;21.64;56.23;101449.09;5008819;28;20053;-37
2023/10/11 01:26:38;;;;;;;12.88;5.78;;;;;;;21.63;56.52;101439.34;5001119;28;20065;-37
2023/10/11 01:29:05;;;;;;;10.50;5.50;;;;;;;21.61;56.60;101444.03;5002520;28;20402;-37
2023/10/11 01:31:33;;;;;;;12.25;5.40;;;;;;;21.63;56.56;101444.72;5000590;28;20115;-37
2023/10/11 01:34:01;;;;;;;11.35;6.00;;;;;;;21.63;56.71;101438.50;5006111;28;20105;-37
2023/10/11 01:36:28;;;;;;;11.20;5.65;;;;;;;21.62;56.63;101442.19;5005185;28;20132;-36
2023/10/11 01:39:00;;;;;;;9.60;5.18;;;;;;;21.62;56.42;101431.38;5002858;28;20046;-37
2023/10/11 01:41:27;;;;;;;12.17;5.80;;;;;;;21.60;56.78;101423.47;5003648;28;20414;-36
2023/10/11 01:43:55;;;;;;;13.20;6.18;;;;;;;21.60;56.75;101418.06;5002657;28;20340;-37
2023/10/11 01:46:26;;;;;;;11.45;5.40;;;;;;;21.59;56.45;101416.38;5005336;28;20050;-37
2023/10/11 01:48:54;;;;;;;8.85;5.00;;;;;;;21.60;56.66;101417.22;4999912;28;20053;-36
2023/10/11 01:51:28;;;;;;;8.40;5.38;;;;;;;21.59;56.62;101413.69;4996824;28;20070;-37
2023/10/11 01:53:56;;;;;;;11.23;5.75;;;;;;;21.59;56.50;101412.84;4967596;28;1078536;-37
2023/10/11 01:56:26;;;;;;;12.60;5.68;;;;;;;21.58;56.68;101406.59;5004616;28;20265;-37
2023/10/11 01:58:56;;;;;;;12.93;5.55;;;;;;;21.57;56.53;101404.91;5001982;28;20049;-37
2023/10/11 02:01:28;;;;;;;10.70;5.68;;;;;;;21.57;56.73;101398.66;5001082;28;20056;-37
2023/10/11 02:04:00;;;;;;;10.88;5.45;;;;;;;21.57;56.79;101395.97;4997681;28;20163;-37
2023/10/11 02:06:34;;;;;;;12.40;5.45;;;;;;;21.56;56.70;101405.06;5001640;28;20046;-37
2023/10/11 02:09:00;;;;;;;;;;;;;;;21.53;57.01;101394.59;5003723;28;20090;-37
2023/10/11 02:11:29;;;;;;;9.63;4.97;;;;;;;21.57;56.32;101394.13;5000599;28;19940;-37
2023/10/11 02:13:57;;;;;;;12.93;5.65;;;;;;;21.55;56.76;101385.34;5003546;28;20108;-37
2023/10/11 02:16:24;;;;;;;10.20;6.10;;;;;;;21.53;56.85;101373.88;5001626;28;20058;-37
2023/10/11 02:18:52;;;;;;;11.35;5.68;;;;;;;21.52;56.52;101385.69;5000794;28;20189;-37
2023/10/11 02:21:19;;;;;;;10.90;5.22;;;;;;;21.51;56.58;101378.59;4999834;28;20073;-37
2023/10/11 02:23:46;;;;;;;11.35;5.85;;;;;;;21.51;56.73;101381.28;5001326;28;20053;-37
2023/10/11 02:26:14;;;;;;;12.63;5.57;;;;;;;21.51;56.66;101378.59;4998821;28;20380;-37
2023/10/11 02:28:41;;;;;;;13.18;5.40;;;;;;;21.51;56.66;101384.00;5003788;28;20052;-37
2023/10/11 02:31:09;;;;;;;9.57;5.68;;;;;;;21.50;56.64;101382.28;5003110;28;20061;-37
2023/10/11 02:33:35;;;;;;;12.40;5.82;;;;;;;21.50;56.45;101390.38;5001478;28;20103;-36
2023/10/11 02:36:18;;;;;;;10.20;5.25;;;;;;;21.49;56.56;101391.38;4999700;28;20430;-37
2023/10/11 02:38:50;;;;;;;9.77;5.43;;;;;;;21.49;56.65;101387.84;5014125;28;20096;-37
2023/10/11 02:41:26;;;;;;;11.45;5.93;;;;;;;21.49;57.18;101385.16;5001034;28;20050;-37
2023/10/11 02:43:54;;;;;;;13.25;6.70;;;;;;;21.48;56.92;101389.72;5003645;28;20053;-37
2023/10/11 02:46:23;;;;;;;9.75;5.35;;;;;;;21.46;57.22;101394.41;5006852;28;20050;-37
2023/10/11 02:49:18;;;;;;;11.48;6.47;;;;;;;21.47;56.77;101392.53;4999482;28;20121;-37
2023/10/11 02:51:56;;;;;;;13.48;6.55;;;;;;;21.45;57.03;101390.03;5002154;28;20042;-37
2023/10/11 02:54:33;;;;;;;11.63;6.47;;;;;;;21.46;56.72;101388.16;5004082;28;20056;-37
2023/10/11 02:57:05;;;;;;;14.80;6.40;;;;;;;21.44;56.72;101386.50;5001724;28;20334;-37
2023/10/11 02:59:33;;;;;;;13.13;5.97;;;;;;;21.43;56.89;101383.97;5007048;28;20046;-37
2023/10/11 03:01:59;;;;;;;8.80;5.50;;;;;;;21.44;56.75;101380.25;5006741;28;20129;-37
2023/10/11 03:04:32;;;;;;;12.00;5.57;;;;;;;21.42;56.62;101388.50;5009092;28;20394;-37
2023/10/11 03:07:00;;;;;;;11.48;6.22;;;;;;;21.41;56.88;101386.81;5003913;28;20109;-37
2023/10/11 03:09:28;;;;;;;9.77;5.43;;;;;;;21.42;56.67;101387.66;5002654;28;20552;-37
2023/10/11 03:11:57;;;;;;;11.02;5.85;;;;;;;21.41;56.86;101386.81;5003312;28;20050;-37
2023/10/11 03:14:24;;;;;;;11.18;6.22;;;;;;;21.40;57.04;101373.50;5001723;28;20350;-37
2023/10/11 03:17:06;;;;;;;10.93;6.07;;;;;;;21.40;56.96;101382.44;4999116;28;20109;-37
2023/10/11 03:19:35;;;;;;;9.85;5.35;;;;;;;21.40;56.93;101378.88;5000835;28;20053;-37
2023/10/11 03:22:02;;;;;;;11.25;5.65;;;;;;;21.39;56.75;101379.91;4994617;28;20049;-37
2023/10/11 03:24:33;;;;;;;8.35;5.43;;;;;;;21.39;56.76;101385.28;4998673;28;20417;-37
2023/10/11 03:27:00;;;;;;;11.73;6.10;;;;;;;21.38;56.88;101392.53;5000180;28;20050;-37
2023/10/11 03:29:30;;;;;;;11.77;6.50;;;;;;;21.39;56.52;101393.38;4998953;28;20050;-37
2023/10/11 03:31:57;;;;;;;9.52;5.57;;;;;;;21.37;56.81;101380.06;5001001;28;20145;-37
2023/10/11 03:34:23;;;;;;;11.60;5.70;;;;;;;21.36;56.62;101369.44;5002916;28;20045;-37
2023/10/11 03:36:50;;;;;;;11.00;5.38;;;;;;;21.37;56.57;101374.66;5002589;28;20111;-37
2023/10/11 03:42:07;;;;;;;12.73;5.75;;;;;;;21.37;56.49;101368.41;4998837;28;20053;-37
2023/10/11 03:44:40;;;;;;;12.38;5.82;;;;;;;21.36;56.54;101377.53;5001025;28;20045;-37
2023/10/11 03:47:08;;;;;;;9.93;5.78;;;;;;;21.35;56.91;101373.16;5003680;28;20334;-37
2023/10/11 03:52:16;;;;;;;8.43;5.15;;;;;;;21.34;56.71;101353.41;4998345;28;20045;-37
2023/10/11 03:54:43;;;;;;;12.27;5.68;;;;;;;21.35;56.67;101357.81;4997086;28;20112;-37
2023/10/11 03:57:10;;;;;;;9.52;5.28;;;;;;;21.34;56.72;101355.25;4998766;28;20049;-37
2023/10/11 03:59:47;;;;;;;7.97;4.80;;;;;;;21.34;56.57;101341.78;4999897;28;20456;-37
2023/10/11 04:02:17;;;;;;;11.00;5.10;;;;;;;21.33;56.66;101345.50;4998070;28;20057;-37
2023/10/11 04:04:48;;;;;;;7.50;4.82;;;;;;;21.33;56.54;101338.25;5001413;28;20501;-37
2023/10/11 04:07:16;;;;;;;8.63;4.88;;;;;;;21.34;56.65;101333.69;5002813;28;20045;-37
2023/10/11 04:09:46;;;;;;;12.00;5.35;;;;;;;21.34;56.78;101353.41;4999305;28;20038;-37
2023/10/11 04:12:14;;;;;;;9.95;5.93;;;;;;;21.32;56.66;101352.72;4998930;28;20046;-37
2023/10/11 04:14:44;;;;;;;9.52;4.97;;;;;;;21.32;56.85;101360.81;5003158;28;20061;-37
2023/10/11 04:19:52;;;;;;;9.70;5.68;;;;;;;21.31;56.94;101366.38;5000811;28;20042;-37
2023/10/11 04:22:25;;;;;;;11.90;5.53;;;;;;;21.31;56.93;101360.97;5001040;28;20057;-37
2023/10/11 04:24:55;;;;;;;9.67;5.30;;;;;;;21.31;56.96;101366.38;5000867;28;20143;-37
2023/10/11 04:29:52;;;;;;;12.38;5.68;;;;;;;21.31;56.94;101363.66;5006195;28;20054;-37
2023/10/11 04:35:24;;;;;;;17.52;7.13;;;;;;;21.30;56.73;101357.41;4973758;28;20049;-37
2023/10/11 04:37:54;;;;;;;13.32;5.57;;;;;;;21.30;56.94;101353.88;5001820;28;20054;-37
2023/10/11 04:43:06;;;;;;;10.98;6.40;;;;;;;21.29;56.64;101349.47;5005650;28;20049;-37
2023/10/11 04:45:46;;;;;;;15.52;6.00;;;;;;;21.28;56.60;101359.44;5002888;28;20126;-37
2023/10/11 04:48:29;;;;;;;9.45;5.05;;;;;;;21.29;56.57;101365.66;5007396;28;20046;-37
2023/10/11 04:54:13;;;;;;;11.10;5.57;;;;;;;21.30;56.72;101356.56;5004255;28;20128;-37
2023/10/11 05:01:58;;;;;;;12.52;6.18;;;;;;;21.27;56.48;101355.06;5008361;28;20054;-37
2023/10/11 05:04:33;;;;;;;8.98;5.70;;;;;;;21.28;56.57;101358.59;5004361;28;20073;-37
2023/10/11 05:07:07;;;;;;;10.15;5.28;;;;;;;21.27;56.47;101354.22;4999907;28;20072;-37
2023/10/11 05:09:39;;;;;;;12.23;5.97;;;;;;;21.27;56.64;101363.13;5002954;28;20050;-37
2023/10/11 05:12:12;;;;;;;12.60;6.57;;;;;;;21.27;57.01;101359.59;5002509;28;20426;-37
2023/10/11 05:14:56;;;;;;;12.57;6.07;;;;;;;21.25;56.70;101351.66;5010164;28;20584;-37
2023/10/11 05:22:49;;;;;;;9.80;5.65;;;;;;;21.25;56.53;101323.84;5003992;28;20056;-38
2023/10/11 05:27:56;;;;;;;11.70;5.85;;;;;;;21.24;56.88;101324.88;5002507;28;20707;-37
2023/10/11 05:52:17;;;;;;;13.60;7.20;;;;;;;21.21;56.69;101339.50;4997476;28;20161;-38
2023/10/11 05:54:49;;;;;;;9.73;5.75;;;;;;;21.20;56.85;101340.53;5004396;28;20054;-38
2023/10/11 05:57:16;;;;;;;14.13;5.95;;;;;;;21.19;56.99;101338.84;5000637;28;20050;-40
2023/10/11 05:59:43;;;;;;;10.80;6.00;;;;;;;21.19;56.97;101333.44;5000473;28;20082;-38
2023/10/11 06:02:18;;;;;;;11.68;6.78;;;;;;;21.20;56.85;101329.75;5001286;28;20041;-38
2023/10/11 06:04:46;;;;;;;11.15;6.18;;;;;;;21.20;56.85;101335.13;5000511;28;20142;-38
2023/10/11 06:07:15;;;;;;;12.60;6.78;;;;;;;21.19;56.91;101334.28;5003999;28;20057;-37
2023/10/11 06:09:43;;;;;;;12.52;6.50;;;;;;;21.20;56.84;101340.53;5004098;28;20718;-38
2023/10/11 06:12:26;;;;;;;10.02;6.00;;;;;;;21.19;56.82;101334.28;5005620;28;20054;-38
2023/10/11 06:14:54;;;;;;;8.85;5.88;;;;;;;21.19;56.81;101339.69;5002690;28;20061;-38
2023/10/11 06:17:41;;;;;;;13.40;6.50;;;;;;;21.20;57.11;101351.31;5002449;28;20413;-38
2023/10/11 06:20:27;;;;;;;12.85;7.40;;;;;;;21.19;56.67;101355.84;5005763;28;20053;-38
2023/10/11 06:22:55;;;;;;;16.13;7.40;;;;;;;21.19;56.68;101361.25;5005655;28;20046;-38
2023/10/11 06:25:49;;;;;;;12.80;6.88;;;;;;;21.19;56.92;101363.94;5003798;28;20096;-38
2023/10/11 06:28:13;;;;;;;11.98;6.60;;;;;;;21.18;56.84;101373.03;4999612;28;20054;-38
2023/10/11 06:30:47;;;;;;;9.15;5.90;;;;;;;21.19;56.70;101365.81;5002055;28;20053;-38
2023/10/11 06:33:14;;;;;;;10.90;6.35;;;;;;;21.19;57.15;101374.72;5001402;28;20112;-38
2023/10/11 06:35:45;;;;;;;11.73;6.35;;;;;;;21.20;56.86;101375.56;4997382;28;20057;-38
2023/10/11 06:38:12;;;;;;;12.25;6.85;;;;;;;21.19;56.77;101374.72;5003258;28;20229;-38
2023/10/11 06:40:39;;;;;;;12.70;6.80;;;;;;;21.20;56.69;101367.47;5000717;28;20062;-38
2023/10/11 06:43:07;;;;;;;12.40;6.82;;;;;;;21.20;57.01;101365.63;5002923;28;20092;-38
2023/10/11 06:45:35;;;;;;;13.38;6.22;;;;;;;21.21;56.92;101377.25;4998335;28;20049;-37
2023/10/11 06:48:09;;;;;;;12.20;6.90;;;;;;;21.22;56.89;101375.41;5000368;28;20050;-38
2023/10/11 06:50:37;;;;;;;15.75;7.28;;;;;;;21.22;56.89;101365.44;5001536;28;20042;-37
2023/10/11 06:53:07;;;;;;;9.50;6.30;;;;;;;21.22;57.11;101354.66;4999637;28;20065;-37
2023/10/11 06:55:35;;;;;;;12.07;6.25;;;;;;;21.20;57.09;101346.75;4997511;28;20445;-38
2023/10/11 06:58:15;;;;;;;10.93;7.10;;;;;;;21.20;56.92;101343.22;4998231;28;20431;-38
2023/10/11 07:00:45;;;;;;;11.93;7.05;;;;;;;21.19;56.96;101350.47;5002025;28;20145;-38
2023/10/11 07:05:48;;;;;;;14.48;7.38;;;;;;;21.20;57.02;101360.25;4996579;28;20240;-38
2023/10/11 07:08:20;;;;;;;13.93;7.57;;;;;;;21.22;57.03;101365.44;4996363;28;20057;-38
2023/10/11 07:11:10;;;;;;;14.90;7.60;;;;;;;21.21;57.21;101366.47;5002376;28;20048;-38
2023/10/11 07:13:49;;;;;;;12.45;6.60;;;;;;;21.25;57.00;101369.69;5000595;28;20065;-38
2023/10/11 07:16:19;;;;;;;12.10;6.82;;;;;;;21.24;56.75;101362.63;5009079;28;20050;-38
2023/10/11 07:18:47;;;;;;;12.68;6.88;;;;;;;21.24;57.23;101382.34;5001891;28;20152;-38
2023/10/11 07:21:19;;;;;;;11.02;6.53;;;;;;;21.26;57.06;101382.16;4997884;28;20054;-38
2023/10/11 07:23:55;;;;;;;10.90;5.72;;;;;;;21.27;57.20;101378.47;5003294;28;20085;-38
2023/10/11 07:29:00;;;;;;;14.23;6.45;;;;;;;21.27;56.94;101392.81;4998219;28;20049;-37
2023/10/11 07:31:37;;;;;;;12.60;7.07;;;;;;;21.27;56.75;101391.97;5003925;28;20097;-37
2023/10/11 07:34:06;;;;;;;17.42;7.45;;;;;;;21.25;57.20;101392.09;5003131;28;20507;-38
2023/10/11 07:36:37;;;;;;;14.43;6.38;;;;;;;21.27;56.85;101394.66;5001963;28;20109;-37
2023/10/11 07:39:16;;;;;;;13.20;6.88;;;;;;;21.26;57.23;101393.78;5001470;28;20058;-38
2023/10/11 07:41:43;;;;;;;9.90;6.15;;;;;;;21.25;57.23;101394.78;4998555;28;20081;-37
2023/10/11 07:44:12;;;;;;;17.20;7.50;;;;;;;21.27;57.07;101400.88;5003906;28;20148;-37
2023/10/11 07:46:39;;;;;;;12.95;6.30;;;;;;;21.26;57.05;101392.94;5000713;28;20058;-37
2023/10/11 07:49:06;;;;;;;15.43;6.90;;;;;;;21.27;57.00;101389.25;5003669;28;20133;-37
2023/10/11 07:51:39;;;;;;;12.40;6.07;;;;;;;21.27;57.17;101390.09;5001576;28;20129;-37
2023/10/11 07:54:07;;;;;;;13.15;6.68;;;;;;;21.28;57.24;101385.56;5001882;28;20139;-37
2023/10/11 07:56:37;;;;;;;13.15;6.18;;;;;;;21.28;56.90;101385.56;5003139;28;20116;-37
2023/10/11 07:59:09;;;;;;;13.30;6.03;;;;;;;21.28;57.17;101388.25;5000342;28;20123;-37
2023/10/11 08:01:45;;;;;;;18.42;7.18;;;;;;;21.29;57.13;101404.25;4999190;28;20053;-37
2023/10/11 08:04:18;;;;;;;12.23;6.28;;;;;;;21.30;57.19;101397.84;5000072;28;20064;-37
2023/10/11 08:06:45;;;;;;;13.90;6.45;;;;;;;21.30;57.11;101394.31;5000039;28;20106;-37
2023/10/11 08:09:19;;;;;;;11.70;5.43;;;;;;;21.29;57.20;101398.84;5005957;28;20350;-37
2023/10/11 08:11:56;;;;;;;10.45;6.28;;;;;;;21.30;57.02;101400.53;5004663;28;20046;-37
2023/10/11 08:14:29;;;;;;;11.80;6.63;;;;;;;21.32;57.00;101403.09;5004499;28;20053;-37
2023/10/11 08:17:10;;;;;;;13.23;6.87;;;;;;;21.31;57.27;101407.66;5009494;28;20060;-37
2023/10/11 08:19:36;;;;;;;12.82;6.88;;;;;;;21.31;57.06;101404.94;5008059;28;20053;-37
2023/10/11 08:22:09;;;;;;;10.85;6.10;;;;;;;21.32;57.26;101405.78;5003997;28;20065;-37
2023/10/11 08:24:46;;;;;;;12.50;6.73;;;;;;;21.32;57.42;101413.88;5002934;28;20096;-37
2023/10/11 08:27:14;;;;;;;10.07;6.15;;;;;;;21.33;57.00;101416.44;5005296;28;20160;-37
2023/10/11 08:29:43;;;;;;;13.77;6.20;;;;;;;21.33;57.25;101418.28;5001209;28;20419;-37
2023/10/11 08:32:28;;;;;;;11.02;5.88;;;;;;;21.34;56.90;101412.72;5005741;28;20369;-37
2023/10/11 08:34:55;;;;;;;10.27;6.03;;;;;;;21.34;56.87;101417.28;5005653;28;20572;-37
2023/10/11 08:37:21;;;;;;;12.48;6.57;;;;;;;21.34;57.13;101411.88;5005577;28;20412;-37
2023/10/11 08:39:50;;;;;;;10.30;6.15;;;;;;;21.34;57.42;101403.78;5005842;28;20187;-37
2023/10/11 08:42:17;;;;;;;11.45;6.45;;;;;;;21.35;57.28;101402.81;5004537;28;20042;-37
2023/10/11 08:44:45;;;;;;;11.60;6.35;;;;;;;21.35;57.22;101405.50;5005016;28;20062;-37
2023/10/11 08:47:13;;;;;;;12.40;5.68;;;;;;;21.36;57.25;101391.00;5005006;28;20090;-38
2023/10/11 08:49:59;;;;;;;14.45;6.15;;;;;;;21.36;57.23;101396.41;5006734;28;20042;-37
2023/10/11 08:52:29;;;;;;;10.38;5.68;;;;;;;21.38;57.16;101414.09;5005122;28;20046;-37
2023/10/11 08:54:58;;;;;;;11.63;6.72;;;;;;;21.38;57.07;101408.69;5007709;28;20144;-37
2023/10/11 08:57:26;;;;;;;12.07;6.20;;;;;;;21.40;57.24;101395.91;5005625;28;20057;-37
2023/10/11 08:59:59;;;;;;;15.10;6.78;;;;;;;21.40;57.32;101403.16;5003475;28;20050;-37
2023/10/11 09:02:29;;;;;;;12.35;6.07;;;;;;;21.41;57.32;101399.44;5004131;28;20133;-37
2023/10/11 09:04:59;;;;;;;11.60;5.88;;;;;;;21.42;57.05;101403.81;5005199;28;20050;-37
2023/10/11 09:07:37;;;;;;;11.23;5.72;;;;;;;21.41;57.14;101403.00;5001516;28;20140;-39
2023/10/11 09:10:25;;;;;;;10.20;5.60;;;;;;;21.41;57.16;101392.19;5004577;28;20128;-37
2023/10/11 09:12:56;;;;;;;12.05;6.00;;;;;;;21.45;57.29;101392.72;5005250;28;20434;-38
2023/10/11 09:15:43;;;;;;;10.95;5.93;;;;;;;21.43;57.47;101397.44;5007985;28;20133;-38
2023/10/11 09:18:17;;;;;;;10.20;5.43;;;;;;;21.46;57.22;101404.34;5004739;28;20097;-38
2023/10/11 09:23:35;;;;;;;11.55;6.95;;;;;;;21.47;57.25;101415.00;5009675;28;20045;-37
2023/10/11 09:26:03;;;;;;;10.50;6.00;;;;;;;21.47;57.29;101422.22;5006344;28;20053;-37
2023/10/11 09:29:16;;;;;;;10.90;6.07;;;;;;;21.48;57.29;101421.22;5004285;28;20050;-37
2023/10/11 09:31:21;;;;;;;14.60;5.82;;;;;;;21.49;57.16;101412.97;4995152;28;20046;-37
2023/10/11 09:33:52;;;;;;;13.15;6.22;;;;;;;21.50;57.04;101432.69;5003132;28;20169;-37
2023/10/11 09:36:20;;;;;;;13.13;6.75;;;;;;;21.49;57.16;101431.84;5003529;28;20041;-37
2023/10/11 09:38:54;;;;;;;13.10;5.88;;;;;;;21.50;57.05;101441.63;5003450;28;20058;-37
2023/10/11 09:41:25;;;;;;;;;;;;;;;21.50;57.47;101448.88;5004412;28;20050;-37
2023/10/11 09:43:59;;;;;;;13.52;6.53;;;;;;;21.53;57.31;101452.09;5000617;28;20189;-37
2023/10/11 09:46:29;;;;;;;13.50;6.47;;;;;;;21.53;57.25;101445.84;5004017;28;20433;-37
2023/10/11 09:48:59;;;;;;;14.02;6.72;;;;;;;21.53;56.96;101449.41;5003973;28;20088;-37
2023/10/11 09:51:27;;;;;;;15.07;6.55;;;;;;;21.54;57.45;101442.16;4999826;28;20137;-37
2023/10/11 09:53:56;;;;;;;13.52;6.10;;;;;;;21.54;57.36;101442.16;5006062;28;20049;-37
2023/10/11 09:56:30;;;;;;;14.75;7.18;;;;;;;21.54;57.38;101434.06;5006845;28;20213;-37
2023/10/11 09:59:11;;;;;;;14.02;6.32;;;;;;;21.55;57.62;101439.31;5007294;28;20119;-37
2023/10/11 10:01:41;;;;;;;16.50;7.10;;;;;;;21.56;57.12;101435.59;5004667;28;20050;-37
2023/10/11 10:04:09;;;;;;;17.52;7.22;;;;;;;21.57;57.36;101439.13;5003936;28;20610;-37
2023/10/11 10:06:36;;;;;;;13.13;6.50;;;;;;;21.58;57.06;101440.81;5004812;28;20462;-38
2023/10/11 10:09:24;;;;;;;11.10;6.15;;;;;;;21.58;57.31;101440.81;5005862;28;20057;-38
2023/10/11 10:12:05;;;;;;;14.57;6.60;;;;;;;21.60;57.52;101446.91;5003789;28;20047;-38
2023/10/11 10:14:38;;;;;;;14.98;6.45;;;;;;;21.62;57.41;101444.88;5003556;28;20081;-38
2023/10/11 10:17:13;;;;;;;17.80;6.80;;;;;;;21.62;57.31;101437.63;5005172;28;20053;-38
2023/10/11 10:19:43;;;;;;;13.23;6.45;;;;;;;21.65;57.21;101431.91;5007687;28;20104;-38
2023/10/11 10:22:17;;;;;;;14.38;6.95;;;;;;;21.67;57.55;101429.91;5006363;28;20099;-38
2023/10/11 10:24:45;;;;;;;12.73;6.22;;;;;;;21.69;57.28;101433.28;5006105;28;20061;-37
2023/10/11 10:27:33;;;;;;;14.77;6.65;;;;;;;21.71;57.62;101440.34;5002317;28;20082;-38
2023/10/11 10:30:07;;;;;;;14.25;6.55;;;;;;;21.74;57.36;101448.13;5004228;28;20046;-38
2023/10/11 10:32:34;;;;;;;20.88;7.28;;;;;;;21.77;57.21;101442.41;5002365;28;20053;-38
2023/10/11 10:35:18;;;;;;;12.13;6.80;;;;;;;21.77;57.20;101428.91;5000449;28;20504;-38
2023/10/11 10:37:47;;;;;;;10.75;6.78;;;;;;;21.82;57.35;101426.56;4998272;28;20073;-38
2023/10/11 10:40:27;;;;;;;11.15;6.30;;;;;;;21.84;57.07;101419.16;5001480;28;20073;-38
2023/10/11 10:43:14;;;;;;;14.43;6.53;;;;;;;21.87;57.25;101406.19;5002132;28;20049;-38
2023/10/11 10:45:41;;;;;;;10.75;5.90;;;;;;;21.90;56.79;101402.28;5002144;28;20449;-38
2023/10/11 10:48:23;;;;;;;13.05;6.18;;;;;;;21.92;56.90;101394.88;5002507;28;20054;-38
2023/10/11 10:50:54;;;;;;;10.85;5.28;;;;;;;21.94;56.82;101387.44;5002726;28;20502;-38
2023/10/11 10:53:24;;;;;;;12.93;6.32;;;;;;;21.96;56.82;101396.25;5003124;28;20327;-38
2023/10/11 10:55:51;;;;;;;11.02;5.75;;;;;;;21.97;56.56;101399.78;5004992;28;20062;-38
2023/10/11 10:58:22;;;;;;;10.98;6.20;;;;;;;21.98;56.55;101393.38;5014666;28;20050;-38
2023/10/11 11:00:52;;;;;;;12.73;5.30;;;;;;;21.99;56.86;101385.13;4999337;28;20061;-38
2023/10/11 11:03:21;;;;;;;10.38;5.57;;;;;;;22.00;56.57;101377.88;4997616;28;20426;-38
2023/10/11 11:06:11;;;;;;;10.27;5.03;;;;;;;21.98;56.69;101371.78;5005433;28;20136;-38
2023/10/11 11:08:39;;;;;;;10.77;5.38;;;;;;;22.01;56.56;101372.28;5004628;28;20065;-38
2023/10/11 11:11:19;;;;;;;8.18;4.75;;;;;;;22.02;56.71;101384.75;5002054;28;20425;-38
2023/10/11 11:13:47;;;;;;;11.07;5.18;;;;;;;22.02;56.50;101390.16;4999056;28;20088;-38
2023/10/11 11:16:26;;;;;;;8.88;5.43;;;;;;;22.03;56.86;101389.19;5000675;28;20085;-38
2023/10/11 11:18:53;;;;;;;11.07;5.63;;;;;;;22.03;56.85;101383.78;5000163;28;20054;-38
2023/10/11 11:21:24;;;;;;;11.43;5.40;;;;;;;22.04;56.53;101387.31;5002010;28;20054;-38
2023/10/11 11:23:52;;;;;;;9.85;5.32;;;;;;;22.04;56.66;101395.41;5006889;28;20402;-38
2023/10/11 11:26:21;;;;;;;9.60;4.85;;;;;;;22.05;56.73;101375.50;5004662;28;20125;-38
2023/10/11 11:29:08;;;;;;;9.80;5.25;;;;;;;22.05;56.70;101375.50;5006050;28;20554;-38
2023/10/11 11:31:52;;;;;;;10.50;5.13;;;;;;;22.05;56.47;101378.19;4995507;28;20042;-38
2023/10/11 11:34:37;;;;;;;10.05;5.32;;;;;;;22.07;56.66;101378.84;5002704;28;20061;-38
2023/10/11 11:37:06;;;;;;;8.75;4.50;;;;;;;22.08;56.23;101378.72;5000358;28;20353;-38
2023/10/11 11:39:51;;;;;;;9.35;4.85;;;;;;;22.08;56.51;101380.56;5001274;28;20053;-38
2023/10/11 11:42:24;;;;;;;10.82;4.35;;;;;;;22.09;56.23;101382.25;4999600;28;20042;-38
2023/10/11 11:44:55;;;;;;;9.35;5.00;;;;;;;22.09;56.64;101372.28;5006464;28;20140;-38
2023/10/11 11:47:22;;;;;;;11.02;4.82;;;;;;;22.10;56.42;101365.03;5006029;28;20061;-38
2023/10/11 11:49:53;;;;;;;9.43;5.03;;;;;;;22.10;56.53;101367.72;5004027;28;20043;-38
2023/10/11 11:52:21;;;;;;;9.35;4.40;;;;;;;22.12;56.77;101376.53;5004037;28;20050;-38
2023/10/11 11:54:48;;;;;;;10.73;4.43;;;;;;;22.11;56.49;101381.09;5003411;28;20057;-38
2023/10/11 11:57:14;;;;;;;11.52;4.55;;;;;;;22.12;56.83;101382.75;5006983;28;20401;-38
2023/10/11 11:59:43;;;;;;;8.40;4.32;;;;;;;22.13;56.95;101372.84;5006714;28;20056;-38
2023/10/11 12:02:16;;;;;;;7.50;4.28;;;;;;;22.13;56.61;101379.06;5011743;28;20335;-38
2023/10/11 12:04:44;;;;;;;5.68;3.80;;;;;;;22.14;56.76;101369.97;5001039;28;20061;-38
2023/10/11 12:07:11;;;;;;;7.38;3.83;;;;;;;22.14;56.69;101377.22;5000776;28;20061;-38
2023/10/11 12:09:38;;;;;;;10.40;4.45;;;;;;;22.14;57.08;101372.66;5001814;28;20050;-38
2023/10/11 12:12:25;;;;;;;8.35;4.03;;;;;;;22.14;56.98;101378.06;5000878;28;20176;-38
2023/10/11 12:14:53;;;;;;;7.90;3.97;;;;;;;22.15;56.92;101363.56;5005783;28;20105;-38
2023/10/11 12:17:19;;;;;;;8.40;4.22;;;;;;;22.15;56.56;101368.97;5003427;28;20104;-38
2023/10/11 12:19:53;;;;;;;7.97;3.85;;;;;;;22.15;56.95;101368.09;5001871;28;20133;-38
2023/10/11 12:22:22;;;;;;;7.00;3.63;;;;;;;22.14;56.93;101367.25;5002078;28;20233;-38
2023/10/11 12:24:49;;;;;;;7.75;4.57;;;;;;;22.15;56.59;101374.38;5004106;28;20062;-38
2023/10/11 12:27:16;;;;;;;7.15;4.10;;;;;;;22.16;56.61;101370.66;4999311;28;20042;-38
2023/10/11 12:29:48;;;;;;;8.77;4.25;;;;;;;22.17;56.83;101376.88;5004094;28;20092;-38
2023/10/11 12:32:33;;;;;;;8.15;4.18;;;;;;;22.17;56.51;101369.63;5006329;28;20104;-38
2023/10/11 12:35:04;;;;;;;10.68;4.40;;;;;;;22.16;56.59;101367.94;5004988;28;20086;-38
2023/10/11 12:37:33;;;;;;;8.18;3.30;;;;;;;22.17;56.71;101366.09;5003432;28;20046;-38
2023/10/11 12:40:00;;;;;;;5.05;3.63;;;;;;;22.17;56.50;101356.13;5006398;28;20137;-38
2023/10/11 12:42:26;;;;;;;7.28;3.60;;;;;;;22.18;56.82;101347.00;5004173;28;20053;-38